This is the latest recevied weather packets stored in our database for station/object K9JVA. If no packets are shown the sender has not sent any weather packets the latest 10 day(s).
| Time | Temp. | Humidity | Pressure | Rain* | Wind** | Luminosity | Snow |
|---|---|---|---|---|---|---|---|
| 1777869178 | 10.56° C | 65% | 1012.1 hPa | 0 mm | - | - | - |
| 1777867556 | 10.56° C | 65% | 1012.3 hPa | 0 mm | - | - | - |
| 1777866657 | 10.56° C | 65% | 1012.6 hPa | 0 mm | - | - | - |
| 1777865459 | 11.11° C | 64% | 1012.8 hPa | 0 mm | - | - | - |
| 1777865098 | 11.11° C | 63% | 1012.8 hPa | 0 mm | - | - | - |
| 1777864639 | 11.11° C | 63% | 1012.8 hPa | 0 mm | - | - | - |
| 1777860479 | 12.78° C | 58% | 1012.8 hPa | 0 mm | - | - | - |
| 1777858260 | 13.89° C | 54% | 1012.5 hPa | 0 mm | - | - | - |
| 1777855502 | 14.44° C | 50% | 1012.6 hPa | 0 mm | - | - | - |
| 1777849264 | 16.11° C | 47% | 1013.1 hPa | 0 mm | - | - | - |
| 1777848963 | 16.11° C | 44% | 1013.3 hPa | 0 mm | - | - | - |
| 1777848664 | 16.11° C | 43% | 1013.4 hPa | 0 mm | - | - | - |
| 1777848363 | 16.11° C | 45% | 1013.3 hPa | 0 mm | - | - | - |
| 1777846864 | 16.67° C | 44% | 1013.6 hPa | 0 mm | - | - | - |
| 1777845904 | 17.22° C | 42% | 1013.8 hPa | 0 mm | - | - | - |
| 1777844704 | 16.67° C | 43% | 1013.8 hPa | 0 mm | - | - | - |
| 1777842030 | 16.67° C | 42% | 1014.7 hPa | 0 mm | - | - | - |
| 1777837927 | 17.22° C | 41% | 1015.1 hPa | 0 mm | - | - | - |
| 1777837326 | 18.33° C | 40% | 1015.3 hPa | 0 mm | - | - | - |
| 1777834568 | 18.89° C | 40% | 1015.9 hPa | 0 mm | - | - | - |
| 1777832708 | 18.33° C | 41% | 1016.6 hPa | 0 mm | - | - | - |
| 1777831808 | 18.89° C | 38% | 1016.7 hPa | 0 mm | - | - | - |
| 1777830489 | 18.33° C | 40% | 1017 hPa | 0 mm | - | - | - |
| 1777829438 | 18.89° C | 40% | 1017.3 hPa | 0 mm | - | - | - |
| 1777824611 | 17.78° C | 42% | 1018.7 hPa | 0 mm | - | - | - |
* Rain since midnight (hover to see other rain measurements)
** Current wind speed in m/s (hover to see current wind gust speed)